SKBO/BOG METAR and TAF weather

Enter ICAO airport designator
Station Type Date Time Source
SKBO METAR 2019/10/21 23:12 UTC NOAA

SKBO 212312Z 31005KT 8000 -RA SCT015 BKN070 13/12 A3030 NOSIG


Station Type Date Time Source
SKBO Decoded METAR 2019/10/21 23:12 UTC NOAA

Bogota / Eldorado, Colombia (SKBO) 04-43N 074-09W 2548M
Oct 21, 2019 - 07:12 PM EDT / 2019.10.21 2312 UTC
Wind: from the NW (310 degrees) at 6 MPH (5 KT):0
Visibility: 4 mile(s):0
Sky conditions: mostly cloudy
Weather: light rain
Temperature: 55 F (13 C)
Dew Point: 53 F (12 C)
Relative Humidity: 93%
Pressure (altimeter): 30.3 in. Hg (1026 hPa)
ob: SKBO 212312Z 31005KT 8000 -RA SCT015 BKN070 13/12 A3030 NOSIG
cycle: 23

Station Type Date Time Source
SKBO TAF 2019/10/21 18:49 UTC NOAA

TAF SKBO 211630Z 2118/2218 32010KT 9999 SCT023 SCT090
TEMPO 2118/2121 DZRA BKN017CB
BECMG 2201/2203 VRB02KT FEW017
BECMG 2215/2217 28010KT SCT017 TX22/2118Z TN07/2211Z

Example: see airport list